Time;durP1;ratioP1;P1;durP2;ratioP2;P2;SDS_P1;SDS_P2;PMS_P1;PMS_P2;Temp;Humidity;BMP_temperature;BMP_pressure;BME280_temperature;BME280_humidity;BME280_pressure;Samples;Min_cycle;Max_cycle;Signal;HPM_P1;HPM_P2
2021/10/27 00:02:16;;;;;;;20.25;8.50;;;;;;;12.85;93.51;102202.72;4845095;29;20046;-83
2021/10/27 00:04:42;;;;;;;24.88;8.75;;;;;;;12.85;93.55;102199.25;4846998;29;20328;-83
2021/10/27 00:07:08;;;;;;;18.67;8.32;;;;;;;12.86;93.89;102200.97;4864359;29;20098;-83
2021/10/27 00:09:34;;;;;;;24.48;7.72;;;;;;;12.85;93.68;102197.47;4836215;29;20037;-83
2021/10/27 00:11:59;;;;;;;21.63;8.73;;;;;;;12.84;93.82;102203.66;4851528;29;20046;-83
2021/10/27 00:14:25;;;;;;;21.65;8.45;;;;;;;12.86;93.89;102203.59;4851382;29;20375;-83
2021/10/27 00:16:50;;;;;;;19.17;8.75;;;;;;;12.85;93.77;102202.72;4852534;29;20026;-83
2021/10/27 00:19:16;;;;;;;19.80;9.18;;;;;;;12.86;93.72;102206.22;4869184;29;20269;-83
2021/10/27 00:21:41;;;;;;;20.08;8.98;;;;;;;12.85;93.78;102200.09;4836492;29;20064;-83
2021/10/27 00:24:07;;;;;;;27.45;10.27;;;;;;;12.86;93.70;102201.84;4868979;29;20037;-83
2021/10/27 00:26:32;;;;;;;22.63;9.27;;;;;;;12.86;93.75;102201.84;4836740;29;20045;-84
2021/10/27 00:28:58;;;;;;;25.00;10.65;;;;;;;12.85;93.74;102208.00;4868771;29;20133;-83
2021/10/27 00:31:23;;;;;;;24.45;9.32;;;;;;;12.85;93.80;102212.41;4836498;29;20072;-83
2021/10/27 00:33:49;;;;;;;31.55;11.88;;;;;;;12.85;93.94;102205.38;4852278;29;20375;-83
2021/10/27 00:36:15;;;;;;;23.77;12.18;;;;;;;12.84;94.28;102208.91;4836871;29;20048;-83
2021/10/27 00:38:41;;;;;;;23.58;11.40;;;;;;;12.85;94.56;102201.88;4837000;29;20092;-83
2021/10/27 00:41:07;;;;;;;18.63;11.68;;;;;;;12.82;94.49;102200.22;4851928;29;20037;-83
2021/10/27 00:43:33;;;;;;;20.73;11.02;;;;;;;12.82;94.60;102201.97;4836884;29;20081;-83
2021/10/27 00:45:58;;;;;;;24.27;12.27;;;;;;;12.82;95.04;102204.59;4836461;29;20045;-83
2021/10/27 00:48:24;;;;;;;22.65;12.38;;;;;;;12.79;94.99;102192.41;4851461;29;20049;-83
2021/10/27 00:50:49;;;;;;;23.65;11.30;;;;;;;12.78;95.32;102198.56;4836565;29;20323;-83
2021/10/27 00:53:15;;;;;;;27.90;11.77;;;;;;;12.76;95.24;102202.16;4868085;29;20259;-83
2021/10/27 00:55:40;;;;;;;21.92;12.07;;;;;;;12.75;95.53;102201.28;4850835;29;20042;-83
2021/10/27 00:58:06;;;;;;;20.10;11.15;;;;;;;12.75;95.48;102208.28;4836125;29;20094;-83
2021/10/27 01:00:31;;;;;;;25.70;11.35;;;;;;;12.73;95.37;102195.19;4868007;29;20034;-83
2021/10/27 01:02:57;;;;;;;20.63;11.45;;;;;;;12.74;95.48;102196.94;4867906;29;20094;-83
2021/10/27 01:05:22;;;;;;;25.45;10.98;;;;;;;12.74;95.46;102203.97;4851263;29;20048;-83
2021/10/27 01:07:48;;;;;;;20.60;10.73;;;;;;;12.74;95.72;102202.19;4867712;29;20038;-84
2021/10/27 01:10:13;;;;;;;22.35;10.98;;;;;;;12.73;95.44;102194.34;4851661;29;20396;-83
2021/10/27 01:12:39;;;;;;;24.02;11.48;;;;;;;12.73;95.57;102200.44;4850758;29;20045;-83
2021/10/27 01:15:05;;;;;;;19.45;10.27;;;;;;;12.74;95.63;102206.59;4851464;29;20237;-83
2021/10/27 01:17:32;;;;;;;23.60;10.52;;;;;;;12.75;95.60;102205.66;4835888;29;20079;-83
2021/10/27 01:19:59;;;;;;;26.13;10.75;;;;;;;12.74;95.50;102202.19;4817314;29;20046;-83
2021/10/27 01:22:29;;;;;;;18.17;9.80;;;;;;;12.75;95.73;102203.03;4832194;29;20048;-83
2021/10/27 01:24:55;;;;;;;25.27;9.10;;;;;;;12.77;95.68;102209.09;4832644;29;20036;-83
2021/10/27 01:27:20;;;;;;;23.13;10.18;;;;;;;12.76;95.52;102204.78;4835998;29;20294;-83
2021/10/27 01:29:46;;;;;;;24.38;10.60;;;;;;;12.76;95.52;102204.78;4851531;29;20053;-83
2021/10/27 01:32:26;;;;;;;17.77;9.18;;;;;;;12.75;95.78;102206.56;4850811;29;20071;-83
2021/10/27 01:34:52;;;;;;;24.15;9.52;;;;;;;12.76;95.59;102215.28;4836836;29;20063;-83
2021/10/27 01:37:18;;;;;;;22.58;10.13;;;;;;;12.75;95.51;102218.81;4866588;29;20038;-84
2021/10/27 01:39:44;;;;;;;20.73;9.00;;;;;;;12.75;95.37;102216.19;4836303;29;20276;-83
2021/10/27 01:42:09;;;;;;;24.95;9.57;;;;;;;12.73;95.48;102205.69;4835482;29;20081;-83
2021/10/27 01:44:35;;;;;;;15.75;8.05;;;;;;;12.73;95.21;102204.84;4835470;29;20366;-83
2021/10/27 01:47:00;;;;;;;20.58;8.10;;;;;;;12.73;95.15;102197.81;4850703;29;20359;-83
2021/10/27 01:49:26;;;;;;;22.35;8.02;;;;;;;12.73;94.96;102196.97;4832213;29;20045;-83
2021/10/27 01:51:51;;;;;;;20.90;7.78;;;;;;;12.71;94.94;102194.38;4848871;29;20337;-83
2021/10/27 01:54:17;;;;;;;15.40;7.60;;;;;;;12.72;94.96;102195.25;4847408;29;20045;-83
2021/10/27 01:56:42;;;;;;;15.07;6.85;;;;;;;12.72;94.94;102193.47;4850652;29;20041;-83
2021/10/27 01:59:10;;;;;;;11.25;6.75;;;;;;;12.72;94.84;102195.25;4850941;29;20046;-83
2021/10/27 02:01:35;;;;;;;12.20;6.47;;;;;;;12.72;94.81;102190.00;4850019;29;20136;-83
2021/10/27 02:04:01;;;;;;;15.02;6.93;;;;;;;12.72;94.55;102196.09;4860990;29;20056;-83
2021/10/27 02:06:26;;;;;;;12.00;6.72;;;;;;;12.72;94.62;102184.75;4849867;29;20041;-83
2021/10/27 02:08:52;;;;;;;10.75;5.90;;;;;;;12.72;94.50;102184.75;4850555;29;20034;-83
2021/10/27 02:11:18;;;;;;;17.83;5.70;;;;;;;12.73;94.51;102186.44;4835145;29;20040;-83
2021/10/27 02:13:43;;;;;;;15.02;5.28;;;;;;;12.72;94.48;102172.44;4866994;29;20053;-83
2021/10/27 02:16:09;;;;;;;12.20;5.50;;;;;;;12.73;94.27;102179.41;4850674;29;20045;-83
2021/10/27 02:18:35;;;;;;;12.40;4.70;;;;;;;12.75;94.06;102179.38;4866360;29;20041;-83
2021/10/27 02:21:00;;;;;;;17.83;5.13;;;;;;;12.75;94.31;102182.88;4850340;29;20045;-84
2021/10/27 02:23:25;;;;;;;15.20;4.50;;;;;;;12.74;94.02;102178.53;4866474;29;20359;-83
2021/10/27 02:25:51;;;;;;;12.88;4.57;;;;;;;12.74;94.03;102168.00;4850244;29;20048;-83
2021/10/27 02:28:17;;;;;;;13.93;4.43;;;;;;;12.73;94.06;102166.28;4835072;29;20021;-83
2021/10/27 02:30:42;;;;;;;9.38;3.70;;;;;;;12.75;94.50;102171.50;4849265;29;20029;-83
2021/10/27 02:33:08;;;;;;;13.48;4.60;;;;;;;12.74;93.79;102167.16;4833077;29;20093;-83
2021/10/27 02:35:33;;;;;;;14.38;4.32;;;;;;;12.75;94.00;102163.59;4849880;29;20053;-83
2021/10/27 02:37:58;;;;;;;8.38;3.95;;;;;;;12.74;93.50;102170.63;4834611;29;20048;-83
2021/10/27 02:40:24;;;;;;;11.93;3.80;;;;;;;12.75;93.80;102164.50;4834508;29;20056;-83
2021/10/27 02:42:50;;;;;;;16.67;4.03;;;;;;;12.76;93.60;102170.59;4849805;29;20056;-83
2021/10/27 02:45:15;;;;;;;12.77;3.75;;;;;;;12.76;93.62;102181.97;4849592;29;20116;-83
2021/10/27 02:47:44;;;;;;;18.73;4.45;;;;;;;12.77;93.59;102180.19;4834789;29;20386;-83
2021/10/27 02:50:10;;;;;;;15.15;4.30;;;;;;;12.78;93.36;102174.91;4865779;29;20049;-83
2021/10/27 02:52:36;;;;;;;12.88;4.28;;;;;;;12.78;93.20;102181.94;4849502;29;20104;-83
2021/10/27 02:55:01;;;;;;;10.52;4.32;;;;;;;12.77;93.43;102181.06;4849225;29;20228;-83
2021/10/27 02:57:27;;;;;;;16.42;4.30;;;;;;;12.78;93.40;102187.19;4849621;29;20029;-83
2021/10/27 02:59:53;;;;;;;18.52;4.68;;;;;;;12.78;93.17;102180.16;4849792;29;20053;-83
2021/10/27 03:02:18;;;;;;;12.55;4.95;;;;;;;12.78;93.04;102188.03;4849030;29;20241;-83
2021/10/27 03:04:44;;;;;;;12.00;4.95;;;;;;;12.78;93.11;102187.19;4849636;29;20151;-83
2021/10/27 03:07:09;;;;;;;11.05;4.63;;;;;;;12.77;93.34;102186.34;4849345;29;20221;-83
2021/10/27 03:09:35;;;;;;;18.02;4.70;;;;;;;12.76;93.15;102179.34;4834057;29;20350;-83
2021/10/27 03:12:01;;;;;;;10.48;5.18;;;;;;;12.77;93.18;102188.06;4865457;29;20089;-84
2021/10/27 03:14:27;;;;;;;14.18;4.88;;;;;;;12.76;93.41;102184.59;4834008;29;20352;-83
2021/10/27 03:16:53;;;;;;;14.77;5.05;;;;;;;12.76;93.23;102181.97;4849761;29;20333;-83
2021/10/27 03:19:19;;;;;;;9.65;4.95;;;;;;;12.76;93.28;102183.75;4849115;29;20073;-83
2021/10/27 03:21:44;;;;;;;21.90;5.70;;;;;;;12.75;93.33;102179.38;4865999;29;20041;-83
2021/10/27 03:24:09;;;;;;;13.60;5.07;;;;;;;12.74;93.50;102181.16;4849151;29;20086;-83
2021/10/27 03:26:35;;;;;;;14.35;6.43;;;;;;;12.73;93.53;102192.56;4848686;29;20049;-83
2021/10/27 03:29:01;;;;;;;19.98;5.95;;;;;;;12.73;93.58;102182.03;4849114;29;20104;-83
2021/10/27 03:31:26;;;;;;;20.50;5.53;;;;;;;12.72;93.78;102180.34;4832594;29;20071;-83
2021/10/27 03:33:51;;;;;;;27.45;5.70;;;;;;;12.72;93.65;102195.25;4849124;29;20213;-83
2021/10/27 03:36:17;;;;;;;13.10;5.43;;;;;;;12.71;93.53;102199.63;4849345;29;20332;-83
2021/10/27 03:38:42;;;;;;;11.50;5.28;;;;;;;12.70;93.57;102187.41;4848829;29;20040;-83
2021/10/27 03:41:08;;;;;;;14.65;5.45;;;;;;;12.70;93.55;102186.53;4833797;29;20056;-83
2021/10/27 03:43:33;;;;;;;9.38;4.82;;;;;;;12.71;93.63;102188.25;4833993;29;20046;-83
2021/10/27 03:45:59;;;;;;;16.48;5.18;;;;;;;12.71;93.61;102185.63;4849003;29;20049;-83
2021/10/27 03:48:25;;;;;;;17.23;4.70;;;;;;;12.69;93.42;102190.94;4833805;29;20057;-83
2021/10/27 03:50:50;;;;;;;13.77;5.13;;;;;;;12.69;93.47;102198.81;4848972;29;20320;-83
2021/10/27 03:53:16;;;;;;;15.80;4.75;;;;;;;12.67;93.33;102190.13;4865636;29;20401;-83
2021/10/27 03:55:41;;;;;;;12.45;4.85;;;;;;;12.66;93.23;102191.88;4848855;29;20045;-83
2021/10/27 03:58:07;;;;;;;10.77;4.93;;;;;;;12.67;93.04;102187.47;4848974;29;20249;-83
2021/10/27 04:00:32;;;;;;;9.05;3.88;;;;;;;12.65;93.41;102198.03;4848169;29;20037;-83
2021/10/27 04:02:58;;;;;;;11.27;4.53;;;;;;;12.65;93.28;102191.94;4865457;29;20041;-83
2021/10/27 04:05:23;;;;;;;14.65;5.28;;;;;;;12.65;93.28;102198.03;4848781;29;20084;-83
2021/10/27 04:07:49;;;;;;;12.32;4.82;;;;;;;12.63;93.24;102199.84;4849420;29;20043;-83
2021/10/27 04:10:14;;;;;;;9.57;4.20;;;;;;;12.63;93.10;102199.00;4864082;29;20165;-83
2021/10/27 04:12:40;;;;;;;9.52;4.15;;;;;;;12.63;92.95;102196.38;4848061;29;20421;-83
2021/10/27 04:15:07;;;;;;;17.42;4.78;;;;;;;12.63;92.92;102196.38;4847984;29;20125;-83
2021/10/27 04:17:34;;;;;;;9.40;4.28;;;;;;;12.62;92.54;102194.63;4848771;29;20041;-83
2021/10/27 04:19:59;;;;;;;15.23;4.15;;;;;;;12.62;92.55;102192.00;4834111;29;20385;-83
2021/10/27 04:22:25;;;;;;;15.10;4.88;;;;;;;12.61;92.72;102195.56;4848635;29;20041;-83
2021/10/27 04:24:51;;;;;;;12.65;4.20;;;;;;;12.61;92.45;102200.81;4849173;29;20329;-83
2021/10/27 04:27:16;;;;;;;9.85;3.80;;;;;;;12.59;92.23;102194.75;4818675;29;20033;-83
2021/10/27 04:29:42;;;;;;;9.35;4.45;;;;;;;12.60;92.25;102197.28;4833395;29;20088;-83
2021/10/27 04:32:07;;;;;;;8.80;4.50;;;;;;;12.59;92.40;102189.47;4848167;29;20075;-83
2021/10/27 04:34:33;;;;;;;12.98;4.55;;;;;;;12.58;92.54;102193.00;4865073;29;20057;-83
2021/10/27 04:36:58;;;;;;;11.05;4.20;;;;;;;12.57;92.51;102186.00;4833067;29;20033;-83
2021/10/27 04:39:24;;;;;;;10.68;4.93;;;;;;;12.57;92.49;102191.25;4833522;29;20056;-83
2021/10/27 04:41:49;;;;;;;9.93;4.40;;;;;;;12.55;92.20;102191.34;4848419;29;20045;-83
2021/10/27 04:44:15;;;;;;;12.88;5.43;;;;;;;12.56;92.29;102197.44;4848646;29;20041;-83
2021/10/27 04:46:40;;;;;;;12.95;4.68;;;;;;;12.55;92.52;102201.84;4833083;29;20033;-83
2021/10/27 04:49:06;;;;;;;9.48;3.97;;;;;;;12.56;92.10;102205.31;4865173;29;20037;-83
2021/10/27 04:51:31;;;;;;;10.85;4.22;;;;;;;12.56;91.81;102200.06;4865020;29;20316;-83
2021/10/27 04:53:57;;;;;;;11.43;4.88;;;;;;;12.55;92.34;102193.97;4866207;29;20429;-83
2021/10/27 04:56:22;;;;;;;8.88;4.85;;;;;;;12.55;92.14;102201.84;4851241;29;20039;-83
2021/10/27 04:58:48;;;;;;;10.00;5.20;;;;;;;12.56;92.21;102194.81;4836134;29;20151;-83
2021/10/27 05:01:13;;;;;;;9.00;4.57;;;;;;;12.55;92.14;102199.22;4851292;29;20061;-83
2021/10/27 05:03:38;;;;;;;10.02;4.88;;;;;;;12.56;92.15;102192.19;4866797;29;20288;-83
2021/10/27 05:06:04;;;;;;;9.57;4.93;;;;;;;12.57;92.04;102191.25;4851777;29;20033;-83
2021/10/27 05:08:32;;;;;;;11.57;4.72;;;;;;;12.56;92.05;102195.66;4867864;29;20045;-83
2021/10/27 05:10:58;;;;;;;12.98;4.82;;;;;;;12.56;92.11;102187.78;4851323;29;20112;-83
2021/10/27 05:13:23;;;;;;;10.07;4.43;;;;;;;12.57;91.84;102199.16;4820910;29;20037;-83
2021/10/27 05:15:49;;;;;;;10.13;4.70;;;;;;;12.57;91.80;102199.16;4836572;29;20236;-83
2021/10/27 05:18:15;;;;;;;10.10;4.40;;;;;;;12.56;92.14;102202.69;4836322;29;20041;-83
2021/10/27 05:20:40;;;;;;;13.05;4.70;;;;;;;12.57;92.06;102200.03;4867575;29;20356;-83
2021/10/27 05:23:06;;;;;;;9.52;4.38;;;;;;;12.57;91.63;102204.41;4850885;29;20104;-83
2021/10/27 05:25:31;;;;;;;10.60;5.05;;;;;;;12.55;91.80;102201.84;4867636;29;20053;-83
2021/10/27 05:27:57;;;;;;;10.60;4.22;;;;;;;12.55;91.76;102199.22;4850901;29;20041;-83
2021/10/27 05:30:23;;;;;;;10.57;4.50;;;;;;;12.57;91.89;102188.63;4850759;29;20037;-83
2021/10/27 05:32:48;;;;;;;5.53;3.67;;;;;;;12.57;91.54;102197.41;4866531;29;20033;-83
2021/10/27 05:35:14;;;;;;;17.77;5.55;;;;;;;12.57;91.31;102191.25;4835828;29;20037;-83
2021/10/27 05:37:39;;;;;;;6.93;4.00;;;;;;;12.56;91.58;102192.19;4850949;29;20036;-83
2021/10/27 05:40:05;;;;;;;11.25;4.18;;;;;;;12.58;91.48;102188.59;4850603;29;20057;-83
2021/10/27 05:42:32;;;;;;;8.00;3.63;;;;;;;12.57;91.70;102191.25;4866829;29;20360;-82
2021/10/27 05:44:59;;;;;;;9.63;4.07;;;;;;;12.58;91.78;102198.25;4835664;29;20049;-83
2021/10/27 05:47:26;;;;;;;7.22;3.63;;;;;;;12.57;91.39;102192.16;4867269;29;20274;-83
2021/10/27 05:50:08;;;;;;;10.30;4.13;;;;;;;12.58;91.50;102190.38;4851266;29;20049;-83
2021/10/27 05:57:39;;;;;;;8.63;4.32;;;;;;;12.60;91.34;102192.03;4850506;29;20241;-83
2021/10/27 06:00:08;;;;;;;9.95;3.90;;;;;;;12.60;91.20;102196.44;4839029;29;20025;-83
2021/10/27 06:02:34;;;;;;;14.48;4.47;;;;;;;12.59;91.24;102211.34;4849483;29;20068;-83
2021/10/27 06:04:59;;;;;;;10.32;4.80;;;;;;;12.58;91.13;102214.88;4848978;29;20296;-83
2021/10/27 06:07:24;;;;;;;8.32;4.60;;;;;;;12.59;91.44;102205.25;4834682;29;20046;-83
2021/10/27 06:09:50;;;;;;;10.98;4.38;;;;;;;12.57;91.58;102210.53;4850698;29;20051;-83
2021/10/27 06:12:18;;;;;;;9.35;4.22;;;;;;;12.58;91.73;102209.63;4834733;29;20249;-83
2021/10/27 06:14:45;;;;;;;11.00;3.92;;;;;;;12.57;91.43;102202.66;4835234;29;20069;-84
2021/10/27 06:17:10;;;;;;;5.88;4.30;;;;;;;12.58;91.48;102220.13;4849861;29;20240;-84
2021/10/27 06:19:35;;;;;;;9.75;3.90;;;;;;;12.58;91.51;102208.75;4820307;29;20041;-84
2021/10/27 06:22:01;;;;;;;14.85;4.10;;;;;;;12.58;91.34;102208.75;4834745;29;20044;-83
2021/10/27 06:24:26;;;;;;;13.95;4.30;;;;;;;12.58;91.42;102206.13;4850023;29;20072;-83
2021/10/27 06:26:52;;;;;;;12.38;4.63;;;;;;;12.59;91.35;102224.50;4850066;29;20045;-83
2021/10/27 06:29:40;;;;;;;14.38;4.70;;;;;;;12.60;91.59;102217.47;4850441;29;20041;-83
2021/10/27 06:34:40;;;;;;;11.60;4.43;;;;;;;12.62;91.59;102223.53;4846488;29;20104;-84
2021/10/27 06:48:22;;;;;;;7.20;3.95;;;;;;;12.62;91.39;102231.44;4839885;29;20455;-83
2021/10/27 06:50:47;;;;;;;7.65;3.92;;;;;;;12.64;91.19;102242.75;4831373;29;20045;-83
2021/10/27 06:53:13;;;;;;;6.60;3.80;;;;;;;12.65;91.15;102244.50;4840997;29;20049;-84
2021/10/27 06:55:40;;;;;;;12.35;4.13;;;;;;;12.65;90.96;102247.97;4832360;29;20037;-83
2021/10/27 06:58:07;;;;;;;17.55;4.38;;;;;;;12.65;91.16;102255.84;4829593;29;20026;-83
2021/10/27 07:00:46;;;;;;;9.15;4.13;;;;;;;12.67;90.86;102261.06;4827415;29;20038;-83
2021/10/27 07:16:36;;;;;;;9.23;4.35;;;;;;;12.71;90.79;102260.09;4866817;29;20280;-83
2021/10/27 07:19:01;;;;;;;11.05;4.95;;;;;;;12.70;90.87;102268.91;4847320;29;20045;-83
2021/10/27 07:21:27;;;;;;;12.02;3.95;;;;;;;12.70;91.19;102270.63;4836556;29;20049;-83
2021/10/27 07:23:52;;;;;;;7.78;3.75;;;;;;;12.70;90.99;102265.38;4847422;29;20062;-83
2021/10/27 07:26:19;;;;;;;17.85;3.95;;;;;;;12.70;91.02;102270.63;4859318;29;20053;-83
2021/10/27 07:28:47;;;;;;;10.10;4.05;;;;;;;12.71;91.14;102272.38;4851752;29;20034;-83
2021/10/27 07:31:15;;;;;;;6.40;3.67;;;;;;;12.70;90.85;102274.16;4830982;29;20044;-83
2021/10/27 07:33:41;;;;;;;15.10;3.80;;;;;;;12.71;91.04;102273.22;4846423;29;20321;-83
2021/10/27 07:36:42;;;;;;;11.38;3.95;;;;;;;12.73;91.17;102278.44;4830615;29;20037;-84
2021/10/27 07:41:37;;;;;;;9.63;3.92;;;;;;;12.72;91.20;102266.22;4828192;29;20043;-84
2021/10/27 07:44:13;;;;;;;9.63;4.25;;;;;;;12.72;91.02;102280.22;4838625;29;20041;-84
2021/10/27 07:46:41;;;;;;;15.93;4.53;;;;;;;12.73;91.13;102284.56;4830343;29;20060;-84
2021/10/27 07:49:06;;;;;;;10.55;3.60;;;;;;;12.73;91.25;102287.19;4822947;29;20041;-84
2021/10/27 07:51:32;;;;;;;14.02;4.35;;;;;;;12.75;90.91;102289.78;4863191;29;20033;-84
2021/10/27 07:53:57;;;;;;;8.10;3.88;;;;;;;12.74;91.04;102283.66;4841212;29;20040;-84
2021/10/27 07:56:23;;;;;;;9.70;3.60;;;;;;;12.75;90.67;102269.63;4856984;29;20267;-84
2021/10/27 07:58:49;;;;;;;6.55;3.00;;;;;;;12.77;90.53;102283.59;4831626;29;20305;-84
2021/10/27 08:01:16;;;;;;;12.60;3.50;;;;;;;12.77;90.43;102280.97;4842537;29;20220;-84
2021/10/27 08:03:42;;;;;;;9.63;3.40;;;;;;;12.78;90.14;102279.19;4823580;29;20090;-85
2021/10/27 08:06:10;;;;;;;9.48;3.50;;;;;;;12.80;90.56;102285.28;4841729;29;20041;-85
2021/10/27 08:08:35;;;;;;;9.63;4.15;;;;;;;12.80;90.33;102290.53;4838674;29;20057;-85
2021/10/27 08:11:01;;;;;;;8.85;3.13;;;;;;;12.80;90.43;102283.50;4861933;29;20082;-85
2021/10/27 08:13:27;;;;;;;7.68;3.25;;;;;;;12.82;90.24;102293.97;4862194;29;20214;-85
2021/10/27 08:15:52;;;;;;;5.20;3.20;;;;;;;12.83;90.34;102296.56;4860790;29;20052;-85
2021/10/27 08:18:18;;;;;;;8.30;3.10;;;;;;;12.84;90.22;102293.03;4829336;29;20072;-85
2021/10/27 08:20:48;;;;;;;5.63;3.25;;;;;;;12.85;89.93;102293.91;4846032;29;20122;-84
2021/10/27 08:23:15;;;;;;;11.98;3.20;;;;;;;12.87;89.83;102292.09;4845329;29;20072;-84
2021/10/27 08:28:08;;;;;;;10.77;3.40;;;;;;;12.89;89.40;102292.06;4826651;29;20041;-84
2021/10/27 08:30:42;;;;;;;12.52;3.15;;;;;;;12.90;89.55;102299.00;4848518;29;20104;-84
2021/10/27 08:33:08;;;;;;;9.45;3.30;;;;;;;12.91;89.76;102296.34;4849994;29;20296;-84
2021/10/27 08:35:35;;;;;;;7.13;2.97;;;;;;;12.94;89.55;102303.31;4847736;29;20104;-84
2021/10/27 08:38:01;;;;;;;14.10;2.97;;;;;;;12.95;89.39;102302.38;4847763;29;20052;-84
2021/10/27 08:40:27;;;;;;;9.50;3.13;;;;;;;12.96;89.71;102301.50;4819437;29;20240;-84
2021/10/27 08:42:54;;;;;;;8.48;3.08;;;;;;;12.96;89.81;102302.34;4862765;29;20324;-84
2021/10/27 08:45:20;;;;;;;6.70;3.15;;;;;;;12.97;89.50;102298.84;4851434;29;20059;-84
2021/10/27 08:47:50;;;;;;;6.55;3.58;;;;;;;12.97;89.28;102298.84;4861157;29;20033;-84
2021/10/27 08:50:16;;;;;;;11.95;3.47;;;;;;;12.98;89.36;102303.16;4833181;29;20064;-84
2021/10/27 08:52:41;;;;;;;5.60;3.10;;;;;;;13.00;89.48;102297.88;4836672;29;20241;-84
2021/10/27 08:55:10;;;;;;;8.18;3.40;;;;;;;13.01;89.28;102312.75;4831940;29;20299;-83
2021/10/27 08:57:36;;;;;;;;;;;;;;;13.01;88.75;102304.88;4828555;29;20064;-83
2021/10/27 09:03:00;;;;;;;4.78;3.08;;;;;;;13.03;89.13;102305.69;4842959;29;20049;-83
2021/10/27 09:05:43;;;;;;;9.07;3.50;;;;;;;13.02;89.16;102317.97;4835607;29;20232;-83
2021/10/27 09:39:07;;;;;;;7.75;3.72;;;;;;;13.09;89.23;102320.44;4836619;29;20285;-83
2021/10/27 10:06:26;;;;;;;12.13;5.18;;;;;;;13.12;89.17;102339.63;4849713;29;20085;-83
2021/10/27 10:08:52;;;;;;;6.68;4.97;;;;;;;13.14;88.93;102345.69;4835943;29;20132;-83
2021/10/27 10:11:19;;;;;;;11.35;5.55;;;;;;;13.14;89.31;102335.19;4847594;29;20065;-84
2021/10/27 10:13:45;;;;;;;9.20;4.90;;;;;;;13.16;88.92;102337.78;4841714;29;20297;-83
2021/10/27 10:16:10;;;;;;;10.77;5.10;;;;;;;13.17;88.86;102343.00;4847278;29;20374;-83
2021/10/27 10:18:37;;;;;;;7.97;4.63;;;;;;;13.18;88.77;102333.31;4847649;29;20033;-83
2021/10/27 10:21:02;;;;;;;12.95;5.25;;;;;;;13.18;88.69;102334.19;4829516;29;20101;-83
2021/10/27 10:23:28;;;;;;;10.18;5.32;;;;;;;13.20;88.48;102336.78;4812048;29;20241;-83
2021/10/27 10:25:57;;;;;;;7.85;3.83;;;;;;;13.22;88.32;102350.75;4826235;29;20298;-83
2021/10/27 10:28:27;;;;;;;9.32;4.05;;;;;;;13.22;88.57;102340.22;4827686;29;20364;-83
2021/10/27 10:31:07;;;;;;;9.43;3.92;;;;;;;13.21;88.30;102336.72;4817991;29;20025;-83
2021/10/27 10:33:37;;;;;;;7.40;3.70;;;;;;;13.21;88.28;102342.00;4858578;29;20041;-83
2021/10/27 10:36:13;;;;;;;8.80;4.50;;;;;;;13.21;87.98;102346.41;4856666;29;20022;-83
2021/10/27 11:37:39;;;;;;;12.23;8.35;;;;;;;13.16;88.00;102336.00;4849055;29;20060;-83
2021/10/27 11:40:15;;;;;;;13.77;8.00;;;;;;;13.20;88.41;102339.41;4846532;29;20041;-83
2021/10/27 11:42:45;;;;;;;19.80;8.18;;;;;;;13.21;88.53;102331.47;4840475;29;20036;-83
2021/10/27 11:45:16;;;;;;;11.73;8.10;;;;;;;13.22;88.37;102324.44;4847852;29;20236;-83
2021/10/27 11:47:46;;;;;;;11.75;8.32;;;;;;;13.24;88.49;102317.34;4837936;29;20085;-83
2021/10/27 11:50:14;;;;;;;19.65;8.75;;;;;;;13.25;88.76;102314.69;4851810;29;20029;-83
2021/10/27 11:52:40;;;;;;;11.30;8.77;;;;;;;13.26;88.42;102318.16;4847618;29;20068;-83
2021/10/27 11:55:10;;;;;;;11.88;9.02;;;;;;;13.28;88.23;102320.75;4848115;29;20261;-83
2021/10/27 11:57:35;;;;;;;13.38;8.80;;;;;;;13.28;88.00;102308.50;4840229;29;20097;-83
2021/10/27 12:00:06;;;;;;;12.15;8.60;;;;;;;13.30;88.17;102316.31;4833274;29;20340;-83
2021/10/27 12:02:53;;;;;;;19.88;8.60;;;;;;;13.30;87.58;102309.31;4830314;29;20068;-83
2021/10/27 12:05:26;;;;;;;11.63;8.73;;;;;;;13.32;88.04;102314.56;4856677;29;20086;-83
2021/10/27 12:13:29;;;;;;;19.45;10.25;;;;;;;13.34;88.22;102304.84;4842063;29;20037;-83
2021/10/27 12:19:01;;;;;;;13.55;10.57;;;;;;;13.34;87.83;102299.59;4840745;29;20094;-83
2021/10/27 12:21:27;;;;;;;14.45;10.60;;;;;;;13.35;87.58;102296.03;4815013;29;20042;-84
2021/10/27 12:23:52;;;;;;;11.90;10.48;;;;;;;13.34;87.73;102283.81;4832094;29;20049;-84
2021/10/27 12:26:19;;;;;;;19.40;10.80;;;;;;;13.36;87.69;102282.84;4850518;29;20049;-83
2021/10/27 12:28:46;;;;;;;15.18;9.35;;;;;;;13.38;87.67;102283.66;4851425;29;20093;-83
2021/10/27 12:31:25;;;;;;;19.23;10.75;;;;;;;13.37;87.46;102281.94;4830136;29;20041;-83
2021/10/27 12:33:51;;;;;;;14.35;9.93;;;;;;;13.40;87.55;102280.97;4854512;29;20037;-83
2021/10/27 12:36:38;;;;;;;19.60;9.82;;;;;;;13.40;87.54;102275.72;4867472;29;20345;-83
2021/10/27 12:39:06;;;;;;;12.63;9.83;;;;;;;13.39;87.70;102271.38;4844577;29;20077;-84
2021/10/27 12:41:31;;;;;;;13.00;9.52;;;;;;;13.38;87.55;102265.22;4858004;29;20033;-83
2021/10/27 12:43:57;;;;;;;18.77;10.35;;;;;;;13.38;87.66;102265.22;4849473;29;20036;-83
2021/10/27 12:46:24;;;;;;;15.45;9.98;;;;;;;13.40;87.53;102262.56;4851870;29;20057;-83
2021/10/27 12:48:49;;;;;;;12.65;9.95;;;;;;;13.41;87.53;102261.66;4874744;29;20045;-83
2021/10/27 12:51:15;;;;;;;12.50;9.38;;;;;;;13.42;87.48;102255.47;4855636;29;20056;-83
2021/10/27 12:53:42;;;;;;;13.68;10.15;;;;;;;13.41;87.49;102254.63;4835503;29;20340;-83
2021/10/27 12:56:12;;;;;;;13.15;9.50;;;;;;;13.48;87.96;102257.06;4858524;29;20036;-83
2021/10/27 12:58:42;;;;;;;15.18;9.80;;;;;;;13.49;88.04;102243.88;4869787;29;20391;-84
2021/10/27 13:14:29;;;;;;;15.43;8.95;;;;;;;13.63;86.30;102235.56;4857419;29;20044;-84
2021/10/27 13:22:14;;;;;;;14.70;9.88;;;;;;;13.65;85.93;102254.78;4834384;29;20332;-83
2021/10/27 13:30:09;;;;;;;11.65;8.77;;;;;;;13.59;86.06;102247.09;4837662;29;20116;-83
2021/10/27 13:32:42;;;;;;;9.68;8.23;;;;;;;13.55;85.79;102254.22;4832762;29;20052;-83
2021/10/27 13:35:09;;;;;;;16.08;8.85;;;;;;;13.53;85.93;102249.88;4836846;29;20044;-83
2021/10/27 13:37:34;;;;;;;11.80;9.10;;;;;;;13.49;85.74;102250.91;4820044;29;20033;-83
2021/10/27 13:40:01;;;;;;;13.63;8.48;;;;;;;13.45;85.92;102244.88;4819855;29;20071;-83
2021/10/27 13:42:48;;;;;;;10.57;8.48;;;;;;;13.40;85.95;102244.16;4850482;29;20428;-83
2021/10/27 13:47:59;;;;;;;10.20;9.15;;;;;;;13.33;86.15;102232.06;4828391;29;20352;-83
2021/10/27 13:58:43;;;;;;;11.43;9.10;;;;;;;13.23;86.78;102245.47;4846050;29;20125;-83
2021/10/27 14:12:16;;;;;;;10.00;7.38;;;;;;;13.17;86.27;102231.63;4856445;29;20069;-83
2021/10/27 15:22:22;;;;;;;11.23;7.70;;;;;;;12.73;84.99;102234.63;4841480;29;20108;-83
2021/10/27 15:30:05;;;;;;;12.20;7.80;;;;;;;12.66;84.60;102222.53;4844904;29;20053;-84
2021/10/27 15:40:39;;;;;;;13.07;8.98;;;;;;;12.58;84.97;102211.41;4842179;29;20117;-83
2021/10/27 15:51:06;;;;;;;14.45;9.23;;;;;;;12.48;84.81;102206.41;4847674;29;20328;-83
2021/10/27 15:53:32;;;;;;;12.00;8.52;;;;;;;12.47;84.80;102204.66;4826441;29;20056;-83
2021/10/27 15:55:58;;;;;;;15.93;8.98;;;;;;;12.45;85.00;102205.59;4826525;29;20375;-83
2021/10/27 15:58:23;;;;;;;12.18;8.75;;;;;;;12.43;84.82;102210.06;4830417;29;20050;-83
2021/10/27 16:00:49;;;;;;;9.73;8.82;;;;;;;12.39;84.86;102211.03;4855681;29;20317;-83
2021/10/27 16:03:16;;;;;;;11.13;8.23;;;;;;;12.37;84.89;102210.19;4841953;29;20375;-83
2021/10/27 16:05:43;;;;;;;13.55;8.55;;;;;;;12.35;85.07;102214.63;4842994;29;20033;-83
2021/10/27 16:08:12;;;;;;;12.43;8.70;;;;;;;12.33;84.74;102219.06;4841874;29;20049;-83
2021/10/27 16:10:37;;;;;;;9.20;8.30;;;;;;;12.32;85.00;102219.97;4862654;29;20380;-83
2021/10/27 16:13:03;;;;;;;9.77;8.80;;;;;;;12.28;84.42;102220.06;4860590;29;20086;-83
2021/10/27 16:15:37;;;;;;;8.63;7.65;;;;;;;12.26;84.77;102213.09;4831151;29;20048;-83
2021/10/27 16:18:11;;;;;;;7.70;7.00;;;;;;;12.26;84.96;102215.72;4830453;29;20033;-83